»·PEaware :: N8070M KWJF-KPSP

N8070M :: KWJF-KPSP

FLIGHT INFORMATION

Flight Status: Arrived
Operator: Privately registered:
United States
More flights under this callsign
Pilot: Anonymous 18904 (18904)
Aircraft: PIPER PA-28R-201 ARROW
(P28R)
More flights by this aircraft type
Origin: KWJF Gen Fox
United States
Destination: KPSP Palm Springs Intl
United States
More flights between these airports :: More routes between these airports
Route: PMD V386 PSP
File this flight plan on PilotEdge
Remarks: RMK / HONK )
Altitude:
(Current/Filed)
11,000ft
Speed:
(Current/Filed)
130kts
Departed: 18-Sep-22 07:47 PM
Arrived: 18-Sep-22 08:41 PM
Distance/Time
Traveled:
101nm/0:54
Distance/Time
To Go:
Arrived

Flight Plot

Page will automatically refresh every two minutes.


Map Options




Map Legend


Flown Route
Filed Route
Departure Airport
Arrival Airport
Navaid (VOR, NDB)
Fix

Horizontal Profiles

Position Reports

Time Latitude Longitude Heading Altitude Ground
Speed
18-Sep-22 19:30 34.738933 -118.219064 71 2324ft 0kts
18-Sep-22 19:31 34.738933 -118.219064 71 2324ft 0kts
18-Sep-22 19:32 34.738933 -118.219064 71 2324ft 0kts
18-Sep-22 19:33 34.738933 -118.219064 71 2324ft 0kts
18-Sep-22 19:34 34.738933 -118.219064 71 2324ft 0kts
18-Sep-22 19:35 34.738933 -118.219064 71 2324ft 0kts
18-Sep-22 19:36 34.738933 -118.219064 71 2324ft 0kts
18-Sep-22 19:37 34.738933 -118.219064 71 2324ft 0kts
18-Sep-22 19:38 34.738953 -118.218999 49 2342ft 0kts
18-Sep-22 19:39 34.738953 -118.218999 49 2342ft 0kts
18-Sep-22 19:40 34.738954 -118.218998 49 2342ft 0kts
18-Sep-22 19:41 34.739188 -118.219787 341 2343ft 8kts
18-Sep-22 19:42 34.739270 -118.221899 304 2345ft 5kts
18-Sep-22 19:43 34.741390 -118.213815 73 2342ft 29kts
18-Sep-22 19:44 34.742987 -118.207656 88 2336ft 17kts
18-Sep-22 19:45 34.743162 -118.207026 298 2336ft 2kts
18-Sep-22 19:46 34.741150 -118.217365 248 2560ft 97kts
18-Sep-22 19:47 34.727493 -118.201928 101 4379ft 120kts
18-Sep-22 19:48 34.713818 -118.166874 144 5630ft 113kts
18-Sep-22 19:49 34.693197 -118.141293 144 6875ft 105kts
18-Sep-22 19:50 34.672740 -118.115669 144 7924ft 106kts
18-Sep-22 19:51 34.652007 -118.089737 145 8976ft 107kts
18-Sep-22 19:52 34.631103 -118.063143 140 9963ft 112kts
18-Sep-22 19:53 34.627735 -118.020503 112 10791ft 128kts
18-Sep-22 19:54 34.623354 -117.971145 106 11011ft 165kts
18-Sep-22 19:55 34.618333 -117.913970 106 11000ft 174kts
18-Sep-22 19:56 34.613055 -117.854637 106 10972ft 177kts
18-Sep-22 19:57 34.607962 -117.795374 98 10960ft 170kts
18-Sep-22 19:58 34.602475 -117.735609 103 10936ft 180kts
18-Sep-22 19:59 34.597081 -117.676357 107 10967ft 174kts
18-Sep-22 20:00 34.591706 -117.616942 105 10999ft 177kts
18-Sep-22 20:01 34.586326 -117.557579 105 11024ft 178kts
18-Sep-22 20:02 34.580914 -117.497879 105 11046ft 178kts
18-Sep-22 20:03 34.575446 -117.438390 105 11035ft 177kts
18-Sep-22 20:04 34.569901 -117.378682 105 11045ft 179kts
18-Sep-22 20:05 34.564384 -117.319233 105 11038ft 178kts
18-Sep-22 20:06 34.558863 -117.259198 105 11041ft 179kts
18-Sep-22 20:07 34.553115 -117.198733 104 11014ft 180kts
18-Sep-22 20:08 34.547363 -117.138431 104 10893ft 180kts
18-Sep-22 20:09 34.541745 -117.079130 104 10831ft 174kts
18-Sep-22 20:10 34.536193 -117.020654 102 10850ft 176kts
18-Sep-22 20:11 34.530605 -116.961442 103 10858ft 178kts
18-Sep-22 20:12 34.524909 -116.902903 103 10805ft 172kts
18-Sep-22 20:13 34.519388 -116.845763 102 10877ft 169kts
18-Sep-22 20:14 34.513855 -116.789065 102 10928ft 170kts
18-Sep-22 20:15 34.508275 -116.732397 101 11007ft 171kts
18-Sep-22 20:16 34.498829 -116.676599 147 11010ft 161kts
18-Sep-22 20:17 34.458291 -116.660495 167 10993ft 152kts
18-Sep-22 20:18 34.417979 -116.644675 166 10987ft 152kts
18-Sep-22 20:19 34.377828 -116.628845 166 10979ft 151kts
18-Sep-22 20:20 34.337783 -116.613033 166 10988ft 153kts
18-Sep-22 20:21 34.297093 -116.597096 166 11008ft 155kts
18-Sep-22 20:22 34.256038 -116.580829 166 11001ft 155kts
18-Sep-22 20:23 34.214547 -116.564559 166 11005ft 157kts
18-Sep-22 20:24 34.173335 -116.548369 166 10978ft 155kts
18-Sep-22 20:25 34.132233 -116.532283 166 10988ft 156kts
18-Sep-22 20:26 34.090335 -116.515768 166 11003ft 158kts
18-Sep-22 20:27 34.048648 -116.499503 167 10999ft 158kts
18-Sep-22 20:28 34.006289 -116.482915 166 11021ft 161kts
18-Sep-22 20:29 33.963685 -116.466334 166 11005ft 160kts
18-Sep-22 20:30 33.923411 -116.442368 151 10123ft 161kts
18-Sep-22 20:31 33.886141 -116.413044 150 8343ft 159kts
18-Sep-22 20:32 33.849080 -116.385481 150 6714ft 154kts
18-Sep-22 20:33 33.812183 -116.359881 150 5124ft 152kts
18-Sep-22 20:34 33.776098 -116.335271 150 3902ft 136kts
18-Sep-22 20:35 33.751099 -116.342186 296 3910ft 146kts
18-Sep-22 20:36 33.767656 -116.386140 282 3542ft 139kts
18-Sep-22 20:37 33.772501 -116.432178 284 2328ft 132kts
18-Sep-22 20:38 33.789218 -116.471208 316 1219ft 130kts
18-Sep-22 20:39 33.811603 -116.491519 321 683ft 81kts
18-Sep-22 20:40 33.826212 -116.504559 323 419ft 33kts
18-Sep-22 20:41 33.828038 -116.508363 324 432ft 44kts
18-Sep-22 20:42 33.827046 -116.509505 213 435ft 0kts

Navigation Log

Ident Type
Flight plan parsing failed, navigation log unavailable